Choctaw — WDF4875 — position and weather

sailwx.info

Track history (hours):
 
Tides and Currents Weather Stations Pressure Air Temp Water Temp Dewpoint Dewpoint Depression Visibility Wind Speed Wind Dir Waves Ship Positions

Choctaw

Owner: Canal Barge Company, Inc., Belle Chasse, LA. More information available from US FCC via Universal Licensing System and Coast Guard Vessel Documentation Center.

Last reported at 2018-Feb-23 08:01 UTC. Time now 2018-Feb-23 12:52 UTC.
Position N 29°42' W 095°03'.

Length 25 m.

Type: Towing. MMSI: 367456760.

Date/timePositionNaut miles runAvg speedWind from/ knotsBaromVisibWave heightAir tempDewpointWater temp
2018-Feb-23 08:01N 29°42' W 095°03'1 3.1
2018-Feb-23 07:50N 29°42' W 095°02'1 1.8
2018-Feb-23 07:29N 29°43' W 095°01'1 2.5
2018-Feb-23 07:00N 29°44' W 095°02'  
2018-Feb-20 23:53N 29°42' W 095°03'2 5.2
2018-Feb-20 23:26N 29°42' W 094°60'3 7.1
2018-Feb-20 22:58N 29°39' W 094°58'4 7.6
2018-Feb-20 22:30N 29°36' W 094°57'26 2.8
2018-Feb-20 13:06N 29°34' W 094°27'0 0.0
2018-Feb-20 12:51N 29°34' W 094°27'0 0.0
2018-Feb-20 12:30N 29°34' W 094°27'0 0.0
2018-Feb-20 11:06N 29°34' W 094°27'0 0.0
2018-Feb-20 10:06N 29°34' W 094°27'0 0.0
2018-Feb-20 09:45N 29°34' W 094°27'0 1.4
2018-Feb-20 09:29N 29°34' W 094°27'1 1.5
2018-Feb-20 08:38N 29°34' W 094°25'2 4.2
2018-Feb-20 08:15N 29°36' W 094°25'2 0.6
2018-Feb-20 04:46N 29°36' W 094°22'1 1.3
2018-Feb-20 04:23N 29°37' W 094°22'2 5.3
2018-Feb-20 03:58N 29°38' W 094°19'2 5.3
2018-Feb-20 03:30N 29°39' W 094°17'2 3.7
2018-Feb-20 03:00N 29°40' W 094°15'3 6.5
2018-Feb-20 02:30N 29°41' W 094°12'1 1.3
2018-Feb-20 01:56N 29°41' W 094°11'0 0.8
2018-Feb-20 01:30N 29°41' W 094°10'3 5.2
2018-Feb-20 01:01N 29°43' W 094°08'3 6.7
2018-Feb-20 00:30N 29°45' W 094°05'3 6.5
2018-Feb-20 00:00N 29°47' W 094°02'3 5.1
2018-Feb-19 23:28N 29°49' W 093°60'2 3.2
2018-Feb-19 22:58N 29°49' W 093°58'0 0.0
2018-Feb-19 22:28N 29°49' W 093°58'0 0.0
2018-Feb-19 21:58N 29°49' W 093°58'0 0.0
2018-Feb-19 21:22N 29°49' W 093°58'0 0.0
2018-Feb-19 20:55N 29°49' W 093°58'0 0.0
2018-Feb-19 20:28N 29°49' W 093°58'0 0.0
2018-Feb-19 19:58N 29°49' W 093°58'0 0.0
2018-Feb-19 19:28N 29°49' W 093°58'0 0.0
2018-Feb-19 18:58N 29°49' W 093°58'0 0.1
2018-Feb-19 18:30N 29°49' W 093°58'2 3.7
2018-Feb-19 18:00N 29°51' W 093°57'4 8.2
2018-Feb-19 17:30N 29°54' W 093°54'4 8.4
2018-Feb-19 17:00N 29°58' W 093°51'4 7.1
2018-Feb-19 16:30N 29°59' W 093°48'4 7.3
2018-Feb-19 16:00N 30°02' W 093°44'3 6.2
2018-Feb-19 15:29N 30°04' W 093°41'3 6.5
2018-Feb-19 14:57N 30°04' W 093°38'3 6.6
2018-Feb-19 14:26N 30°04' W 093°34'3 6.6
2018-Feb-19 14:00N 30°04' W 093°30'3 6.8
2018-Feb-19 13:30N 30°04' W 093°26'3 6.4
2018-Feb-19 13:00N 30°04' W 093°23'2 3.8
2018-Feb-19 12:30N 30°04' W 093°21'1 1.5
2018-Feb-19 12:00N 30°05' W 093°20'2 3.0
2018-Feb-19 11:29N 30°06' W 093°19'0 0.2
2018-Feb-19 10:59N 30°06' W 093°19'0 0.0
2018-Feb-19 10:29N 30°06' W 093°19'0 0.0
2018-Feb-19 09:56N 30°06' W 093°19'0 0.0
2018-Feb-19 09:23N 30°06' W 093°19'0 0.0
2018-Feb-19 08:59N 30°06' W 093°19'0 0.0
2018-Feb-19 08:23N 30°06' W 093°19'0 0.0
2018-Feb-19 07:59N 30°06' W 093°19'0 0.0
2018-Feb-19 07:29N 30°06' W 093°19'0 0.0
2018-Feb-19 06:59N 30°06' W 093°19'0 0.0
2018-Feb-19 06:29N 30°06' W 093°19'0 0.0
2018-Feb-19 05:59N 30°06' W 093°19'0 0.0
2018-Feb-19 05:29N 30°06' W 093°19'0 0.0
2018-Feb-19 04:59N 30°06' W 093°19'0 0.0
2018-Feb-19 04:29N 30°06' W 093°19'0 0.0
2018-Feb-19 03:59N 30°06' W 093°19'0 0.0
2018-Feb-19 03:29N 30°06' W 093°19'0 0.0
2018-Feb-19 02:59N 30°06' W 093°19'0 0.0
2018-Feb-19 02:29N 30°06' W 093°19'0 0.0
2018-Feb-19 01:59N 30°06' W 093°19'0 0.1
2018-Feb-19 01:29N 30°06' W 093°19'0 0.1
2018-Feb-19 00:59N 30°06' W 093°19'0 0.1
2018-Feb-19 00:29N 30°06' W 093°19'0 0.1
2018-Feb-18 23:59N 30°06' W 093°19'0 0.1
2018-Feb-18 23:29N 30°06' W 093°19'0 0.0
2018-Feb-18 22:59N 30°06' W 093°19'0 0.0
2018-Feb-18 22:29N 30°06' W 093°19'1 1.5
2018-Feb-18 22:00N 30°06' W 093°18'3 5.0
2018-Feb-18 21:30N 30°04' W 093°16'3 6.2
2018-Feb-18 21:00N 30°02' W 093°14'3 6.9
2018-Feb-18 20:30N 29°59' W 093°12'4 7.2
2018-Feb-18 20:00N 29°56' W 093°09'4 7.0
2018-Feb-18 19:29N 29°56' W 093°05'38 6.3
2018-Feb-18 13:29N 29°51' W 092°22'2 4.0
2018-Feb-18 13:00N 29°50' W 092°20'2 3.6
2018-Feb-18 12:30N 29°50' W 092°18'2 4.0
2018-Feb-18 12:01N 29°48' W 092°16'3 5.1
2018-Feb-18 11:30N 29°47' W 092°13'2 4.0
2018-Feb-18 11:00N 29°47' W 092°11'3 4.8
2018-Feb-18 10:29N 29°47' W 092°08'2 4.2
2018-Feb-18 10:00N 29°48' W 092°06'3 5.4
2018-Feb-18 09:30N 29°49' W 092°03'4 2.3
2018-Feb-18 07:37N 29°50' W 091°58'0 0.0
2018-Feb-18 07:28N 29°50' W 091°58'0 0.0
2018-Feb-18 06:58N 29°50' W 091°58'0 0.0
2018-Feb-18 06:31N 29°50' W 091°58'61 5.7
2018-Feb-17 19:54N 29°32' W 090°52'3 6.8
2018-Feb-17 19:30N 29°32' W 090°49'3 5.9
2018-Feb-17 19:00N 29°33' W 090°45'3 5.2
2018-Feb-17 18:30N 29°35' W 090°43'2 5.0
2018-Feb-17 18:00N 29°37' W 090°42'3 6.5
2018-Feb-17 17:29N 29°35' W 090°38'3 6.0
2018-Feb-17 17:00N 29°35' W 090°35'  
Track history (hours):
 
Tides and Currents Weather Stations Pressure Air Temp Water Temp Dewpoint Dewpoint Depression Visibility Wind Speed Wind Dir Waves Ship Positions

Choctaw

Owner: Canal Barge Company, Inc., Belle Chasse, LA. More information available from US FCC via Universal Licensing System and Coast Guard Vessel Documentation Center.

Last reported at 2018-Feb-23 08:01 UTC. Time now 2018-Feb-23 12:52 UTC.
Position N 29°42' W 095°03'.

Length 25 m.

Type: Towing. MMSI: 367456760.

Date/timePositionNaut miles runAvg speedWind from/ knotsBaromVisibWave heightAir tempDewpointWater temp
2018-Feb-23 08:01N 29°42' W 095°03'1 3.1
2018-Feb-23 07:50N 29°42' W 095°02'1 1.8
2018-Feb-23 07:29N 29°43' W 095°01'1 2.5
2018-Feb-23 07:00N 29°44' W 095°02'  
2018-Feb-20 23:53N 29°42' W 095°03'2 5.2
2018-Feb-20 23:26N 29°42' W 094°60'3 7.1
2018-Feb-20 22:58N 29°39' W 094°58'4 7.6
2018-Feb-20 22:30N 29°36' W 094°57'26 2.8
2018-Feb-20 13:06N 29°34' W 094°27'0 0.0
2018-Feb-20 12:51N 29°34' W 094°27'0 0.0
2018-Feb-20 12:30N 29°34' W 094°27'0 0.0
2018-Feb-20 11:06N 29°34' W 094°27'0 0.0
2018-Feb-20 10:06N 29°34' W 094°27'0 0.0
2018-Feb-20 09:45N 29°34' W 094°27'0 1.4
2018-Feb-20 09:29N 29°34' W 094°27'1 1.5
2018-Feb-20 08:38N 29°34' W 094°25'2 4.2
2018-Feb-20 08:15N 29°36' W 094°25'2 0.6
2018-Feb-20 04:46N 29°36' W 094°22'1 1.3
2018-Feb-20 04:23N 29°37' W 094°22'2 5.3
2018-Feb-20 03:58N 29°38' W 094°19'2 5.3
2018-Feb-20 03:30N 29°39' W 094°17'2 3.7
2018-Feb-20 03:00N 29°40' W 094°15'3 6.5
2018-Feb-20 02:30N 29°41' W 094°12'1 1.3
2018-Feb-20 01:56N 29°41' W 094°11'0 0.8
2018-Feb-20 01:30N 29°41' W 094°10'3 5.2
2018-Feb-20 01:01N 29°43' W 094°08'3 6.7
2018-Feb-20 00:30N 29°45' W 094°05'3 6.5
2018-Feb-20 00:00N 29°47' W 094°02'3 5.1
2018-Feb-19 23:28N 29°49' W 093°60'2 3.2
2018-Feb-19 22:58N 29°49' W 093°58'0 0.0
2018-Feb-19 22:28N 29°49' W 093°58'0 0.0
2018-Feb-19 21:58N 29°49' W 093°58'0 0.0
2018-Feb-19 21:22N 29°49' W 093°58'0 0.0
2018-Feb-19 20:55N 29°49' W 093°58'0 0.0
2018-Feb-19 20:28N 29°49' W 093°58'0 0.0
2018-Feb-19 19:58N 29°49' W 093°58'0 0.0
2018-Feb-19 19:28N 29°49' W 093°58'0 0.0
2018-Feb-19 18:58N 29°49' W 093°58'0 0.1
2018-Feb-19 18:30N 29°49' W 093°58'2 3.7
2018-Feb-19 18:00N 29°51' W 093°57'4 8.2
2018-Feb-19 17:30N 29°54' W 093°54'4 8.4
2018-Feb-19 17:00N 29°58' W 093°51'4 7.1
2018-Feb-19 16:30N 29°59' W 093°48'4 7.3
2018-Feb-19 16:00N 30°02' W 093°44'3 6.2
2018-Feb-19 15:29N 30°04' W 093°41'3 6.5
2018-Feb-19 14:57N 30°04' W 093°38'3 6.6
2018-Feb-19 14:26N 30°04' W 093°34'3 6.6
2018-Feb-19 14:00N 30°04' W 093°30'3 6.8
2018-Feb-19 13:30N 30°04' W 093°26'3 6.4
2018-Feb-19 13:00N 30°04' W 093°23'2 3.8
2018-Feb-19 12:30N 30°04' W 093°21'1 1.5
2018-Feb-19 12:00N 30°05' W 093°20'2 3.0
2018-Feb-19 11:29N 30°06' W 093°19'0 0.2
2018-Feb-19 10:59N 30°06' W 093°19'0 0.0
2018-Feb-19 10:29N 30°06' W 093°19'0 0.0
2018-Feb-19 09:56N 30°06' W 093°19'0 0.0
2018-Feb-19 09:23N 30°06' W 093°19'0 0.0
2018-Feb-19 08:59N 30°06' W 093°19'0 0.0
2018-Feb-19 08:23N 30°06' W 093°19'0 0.0
2018-Feb-19 07:59N 30°06' W 093°19'0 0.0
2018-Feb-19 07:29N 30°06' W 093°19'0 0.0
2018-Feb-19 06:59N 30°06' W 093°19'0 0.0
2018-Feb-19 06:29N 30°06' W 093°19'0 0.0
2018-Feb-19 05:59N 30°06' W 093°19'0 0.0
2018-Feb-19 05:29N 30°06' W 093°19'0 0.0
2018-Feb-19 04:59N 30°06' W 093°19'0 0.0
2018-Feb-19 04:29N 30°06' W 093°19'0 0.0
2018-Feb-19 03:59N 30°06' W 093°19'0 0.0
2018-Feb-19 03:29N 30°06' W 093°19'0 0.0
2018-Feb-19 02:59N 30°06' W 093°19'0 0.0
2018-Feb-19 02:29N 30°06' W 093°19'0 0.0
2018-Feb-19 01:59N 30°06' W 093°19'0 0.1
2018-Feb-19 01:29N 30°06' W 093°19'0 0.1
2018-Feb-19 00:59N 30°06' W 093°19'0 0.1
2018-Feb-19 00:29N 30°06' W 093°19'0 0.1
2018-Feb-18 23:59N 30°06' W 093°19'0 0.1
2018-Feb-18 23:29N 30°06' W 093°19'0 0.0
2018-Feb-18 22:59N 30°06' W 093°19'0 0.0
2018-Feb-18 22:29N 30°06' W 093°19'1 1.5
2018-Feb-18 22:00N 30°06' W 093°18'3 5.0
2018-Feb-18 21:30N 30°04' W 093°16'3 6.2
2018-Feb-18 21:00N 30°02' W 093°14'3 6.9
2018-Feb-18 20:30N 29°59' W 093°12'4 7.2
2018-Feb-18 20:00N 29°56' W 093°09'4 7.0
2018-Feb-18 19:29N 29°56' W 093°05'38 6.3
2018-Feb-18 13:29N 29°51' W 092°22'2 4.0
2018-Feb-18 13:00N 29°50' W 092°20'2 3.6
2018-Feb-18 12:30N 29°50' W 092°18'2 4.0
2018-Feb-18 12:01N 29°48' W 092°16'3 5.1
2018-Feb-18 11:30N 29°47' W 092°13'2 4.0
2018-Feb-18 11:00N 29°47' W 092°11'3 4.8
2018-Feb-18 10:29N 29°47' W 092°08'2 4.2
2018-Feb-18 10:00N 29°48' W 092°06'3 5.4
2018-Feb-18 09:30N 29°49' W 092°03'4 2.3
2018-Feb-18 07:37N 29°50' W 091°58'0 0.0
2018-Feb-18 07:28N 29°50' W 091°58'0 0.0
2018-Feb-18 06:58N 29°50' W 091°58'0 0.0
2018-Feb-18 06:31N 29°50' W 091°58'61 5.7
2018-Feb-17 19:54N 29°32' W 090°52'3 6.8
2018-Feb-17 19:30N 29°32' W 090°49'3 5.9
2018-Feb-17 19:00N 29°33' W 090°45'3 5.2
2018-Feb-17 18:30N 29°35' W 090°43'2 5.0
2018-Feb-17 18:00N 29°37' W 090°42'3 6.5
2018-Feb-17 17:29N 29°35' W 090°38'3 6.0
2018-Feb-17 17:00N 29°35' W 090°35'  

Dump ship's entire track history